Ana Sayfa
METAR-TAF:

METAR-TAF

Havaalanları :

Orange Municipal Airport

Orange, Massachusetts, Amerika Birleşik Devletleri

Enlem: 42-34-18N, Boylam: 072-16-39W, yükseklik: 169 m

Güncel hava durumu gözlemi

Rapor saat 03:52 UTC de 57 dakika önce yapıldı.
Sakin rüzgar
Sıcaklık 18°C
Nem 94%
Basınç 1018 hPa
Görüş mesafesi: 16.1 km
6500 ft yükseklikte parçalı bulutlu

METAR: KORE 270352Z AUTO 00000KT 10SM SCT065 18/17 A3006 RMK AO2 SLP177 T01830172

Saat: 00:49 (04:49 UTC)


TAF: eksik

4.000'den fazla havaalanı için hava durumu gözlemleri ve tahminleri (METAR ve TAF raporları).

Kullanılabilir istasyonlar harita üzerinde sarı ve kırmızı noktalarla gösterilir.

İstasyonun adını görmek için fareyi noktanın üzerinde gezdirin.

Sonrasında hava gözlem ve tahminlerini görmek için tıklayın.

Haritayı değiştirmek için: yaklaştırmak için siyah artı işaretli yeşil düğmeye ve uzaklaştırmak için de eksi işaretli düğmeye hızla tıklayın; bitişik haritalar için yeşil okları kullanın.


METAR-TAF: